PWSweather.com
Personal Weather Stations
Station Observations
COONRAPIDS
Minneapolis, MN 55433

Minneapolis, MN 55433

Lat: 45.187721, Lon: -93.36828

Elevation: 898

Station Type: Davis Vantage Pro 2

High Low Average
Temperature 38.4°F3.6°C 19.8°F-6.8°C 29.6°F-1.3°C
Dew Point 27.8°F-2.3°C 15.1°F-9.4°C 22.6°F-5.2°C
Winds 4.6 mph 7.4 kmh Calm Calm 1.0 mph SSW1.6 kmh SSW
Wind Gusts 9.2 mph14.8 kmh -- 1.0 mph1.6 kmh
Humidity 83% 63% 75%
Pressure 29.93 in1013.5 mb 29.72 in1006.4 mb -
Precipitation 0.11 in2.8 mm - -
Hour Temp Dew Point Humidity Winds Wind Gusts Pressure Precip Precip Rate Daily Precip Total
12:00 AM 24.5°F-4.2°C 18.9°F-7.3°C 79% Calm Calm -- 29.94 in1013.9 mb - 0.00 in0.0 mm 0.00 in0.0 mm
12:10 AM 24.5°F-4.2°C 18.9°F-7.3°C 79% Calm Calm -- 29.93 in1013.5 mb - 0.00 in0.0 mm 0.00 in0.0 mm
12:20 AM 24.8°F-4.0°C 19.2°F-7.1°C 79% Calm Calm -- 29.93 in1013.5 mb - 0.00 in0.0 mm 0.00 in0.0 mm
12:30 AM 24.8°F-4.0°C 19.2°F-7.1°C 79% Calm Calm -- 29.92 in1013.2 mb - 0.00 in0.0 mm 0.00 in0.0 mm
12:40 AM 24.9°F-3.9°C 19.6°F-6.9°C 80% Calm Calm -- 29.92 in1013.2 mb - 0.00 in0.0 mm 0.00 in0.0 mm
12:50 AM 25.0°F-3.9°C 19.7°F-6.8°C 80% Calm Calm -- 29.92 in1013.2 mb - 0.00 in0.0 mm 0.00 in0.0 mm
01:00 AM 25.0°F-3.9°C 19.7°F-6.8°C 80% Calm Calm -- 29.92 in1013.2 mb - 0.00 in0.0 mm 0.00 in0.0 mm
01:10 AM 25.0°F-3.9°C 19.7°F-6.8°C 80% Calm Calm -- 29.91 in1012.9 mb - 0.00 in0.0 mm 0.00 in0.0 mm
01:20 AM 25.0°F-3.9°C 19.7°F-6.8°C 80% Calm Calm -- 29.91 in1012.9 mb - 0.00 in0.0 mm 0.00 in0.0 mm
01:30 AM 24.6°F-4.1°C 19.3°F-7.1°C 80% Calm Calm -- 29.92 in1013.2 mb - 0.00 in0.0 mm 0.00 in0.0 mm
01:40 AM 24.2°F-4.3°C 19.2°F-7.1°C 81% Calm Calm -- 29.92 in1013.2 mb - 0.00 in0.0 mm 0.00 in0.0 mm
01:50 AM 23.8°F-4.6°C 18.8°F-7.3°C 81% Calm Calm -- 29.93 in1013.5 mb - 0.00 in0.0 mm 0.00 in0.0 mm
02:00 AM 23.5°F-4.7°C 18.5°F-7.5°C 81% Calm Calm -- 29.92 in1013.2 mb - 0.00 in0.0 mm 0.00 in0.0 mm
02:10 AM 23.0°F-5.0°C 18.0°F-7.8°C 81% Calm Calm -- 29.92 in1013.2 mb - 0.00 in0.0 mm 0.00 in0.0 mm
02:20 AM 22.6°F-5.2°C 18.0°F-7.8°C 82% Calm Calm -- 29.92 in1013.2 mb - 0.00 in0.0 mm 0.00 in0.0 mm
02:30 AM 22.5°F-5.3°C 18.1°F-7.7°C 83% Calm Calm -- 29.92 in1013.2 mb - 0.00 in0.0 mm 0.00 in0.0 mm
02:40 AM 22.5°F-5.3°C 17.8°F-7.9°C 82% Calm Calm 2.3 mph3.7 kmh 29.91 in1012.9 mb - 0.00 in0.0 mm 0.00 in0.0 mm
02:50 AM 22.3°F-5.4°C 17.6°F-8.0°C 82% Calm Calm -- 29.92 in1013.2 mb - 0.00 in0.0 mm 0.00 in0.0 mm
03:00 AM 22.0°F-5.6°C 17.1°F-8.3°C 81% Calm Calm -- 29.91 in1012.9 mb - 0.00 in0.0 mm 0.00 in0.0 mm
03:10 AM 21.7°F-5.7°C 16.8°F-8.4°C 81% Calm Calm -- 29.91 in1012.9 mb - 0.00 in0.0 mm 0.00 in0.0 mm
03:20 AM 21.5°F-5.8°C 16.6°F-8.6°C 81% Calm Calm -- 29.91 in1012.9 mb - 0.00 in0.0 mm 0.00 in0.0 mm
03:30 AM 21.2°F-6.0°C 16.3°F-8.7°C 81% Calm Calm -- 29.91 in1012.9 mb - 0.00 in0.0 mm 0.00 in0.0 mm
03:40 AM 21.2°F-6.0°C 16.3°F-8.7°C 81% Calm Calm -- 29.91 in1012.9 mb - 0.00 in0.0 mm 0.00 in0.0 mm
03:50 AM 21.0°F-6.1°C 16.0°F-8.9°C 81% Calm Calm -- 29.91 in1012.9 mb - 0.00 in0.0 mm 0.00 in0.0 mm
04:00 AM 20.8°F-6.2°C 15.9°F-8.9°C 81% Calm Calm -- 29.91 in1012.9 mb - 0.00 in0.0 mm 0.00 in0.0 mm
04:10 AM 20.7°F-6.3°C 16.1°F-8.8°C 82% Calm Calm -- 29.90 in1012.5 mb - 0.00 in0.0 mm 0.00 in0.0 mm
04:20 AM 20.7°F-6.3°C 16.1°F-8.8°C 82% 2.3 mph S3.7 kmh S 3.5 mph5.6 kmh 29.89 in1012.2 mb - 0.00 in0.0 mm 0.00 in0.0 mm
04:30 AM 20.6°F-6.3°C 15.7°F-9.1°C 81% Calm Calm -- 29.89 in1012.2 mb - 0.00 in0.0 mm 0.00 in0.0 mm
04:40 AM 20.4°F-6.4°C 15.5°F-9.2°C 81% Calm Calm -- 29.89 in1012.2 mb - 0.00 in0.0 mm 0.00 in0.0 mm
04:50 AM 20.3°F-6.5°C 15.4°F-9.2°C 81% Calm Calm -- 29.88 in1011.9 mb - 0.00 in0.0 mm 0.00 in0.0 mm
05:00 AM 20.0°F-6.7°C 15.1°F-9.4°C 81% Calm Calm -- 29.88 in1011.9 mb - 0.00 in0.0 mm 0.00 in0.0 mm
05:10 AM 19.8°F-6.8°C 15.2°F-9.3°C 82% Calm Calm -- 29.87 in1011.5 mb - 0.00 in0.0 mm 0.00 in0.0 mm
05:20 AM 19.8°F-6.8°C 15.2°F-9.3°C 82% Calm Calm -- 29.87 in1011.5 mb - 0.00 in0.0 mm 0.00 in0.0 mm
05:30 AM 20.0°F-6.7°C 15.4°F-9.2°C 82% Calm Calm -- 29.87 in1011.5 mb - 0.00 in0.0 mm 0.00 in0.0 mm
05:40 AM 20.4°F-6.4°C 15.8°F-9.0°C 82% Calm Calm -- 29.85 in1010.8 mb - 0.00 in0.0 mm 0.00 in0.0 mm
05:50 AM 20.7°F-6.3°C 16.1°F-8.8°C 82% Calm Calm -- 29.85 in1010.8 mb - 0.00 in0.0 mm 0.00 in0.0 mm
06:00 AM 20.9°F-6.2°C 16.3°F-8.7°C 82% Calm Calm -- 29.85 in1010.8 mb - 0.00 in0.0 mm 0.00 in0.0 mm
06:10 AM 21.2°F-6.0°C 16.6°F-8.6°C 82% Calm Calm -- 29.85 in1010.8 mb - 0.00 in0.0 mm 0.00 in0.0 mm
06:20 AM 21.2°F-6.0°C 16.3°F-8.7°C 81% Calm Calm -- 29.85 in1010.8 mb - 0.00 in0.0 mm 0.00 in0.0 mm
06:30 AM 20.9°F-6.2°C 16.0°F-8.9°C 81% Calm Calm -- 29.86 in1011.2 mb - 0.00 in0.0 mm 0.00 in0.0 mm
06:40 AM 20.7°F-6.3°C 16.1°F-8.8°C 82% Calm Calm -- 29.86 in1011.2 mb - 0.00 in0.0 mm 0.00 in0.0 mm
06:50 AM 20.5°F-6.4°C 15.9°F-8.9°C 82% Calm Calm -- 29.86 in1011.2 mb - 0.00 in0.0 mm 0.00 in0.0 mm
07:00 AM 20.5°F-6.4°C 15.9°F-8.9°C 82% Calm Calm -- 29.86 in1011.2 mb - 0.00 in0.0 mm 0.00 in0.0 mm
07:10 AM 21.1°F-6.1°C 16.8°F-8.4°C 83% Calm Calm -- 29.86 in1011.2 mb - 0.00 in0.0 mm 0.00 in0.0 mm
07:20 AM 21.6°F-5.8°C 17.2°F-8.2°C 83% Calm Calm -- 29.86 in1011.2 mb - 0.00 in0.0 mm 0.00 in0.0 mm
07:30 AM 21.8°F-5.7°C 17.2°F-8.2°C 82% Calm Calm -- 29.86 in1011.2 mb - 0.00 in0.0 mm 0.00 in0.0 mm
07:40 AM 22.2°F-5.4°C 17.5°F-8.1°C 82% Calm Calm -- 29.86 in1011.2 mb - 0.00 in0.0 mm 0.00 in0.0 mm
07:50 AM 22.6°F-5.2°C 17.9°F-7.8°C 82% 2.3 mph S3.7 kmh S 3.5 mph5.6 kmh 29.86 in1011.2 mb - 0.00 in0.0 mm 0.00 in0.0 mm
08:00 AM 22.8°F-5.1°C 17.9°F-7.8°C 81% Calm Calm -- 29.85 in1010.8 mb - 0.00 in0.0 mm 0.00 in0.0 mm
08:10 AM 23.0°F-5.0°C 18.0°F-7.8°C 81% 1.2 mph S1.9 kmh S 3.5 mph5.6 kmh 29.84 in1010.5 mb - 0.00 in0.0 mm 0.00 in0.0 mm
08:20 AM 23.3°F-4.8°C 18.3°F-7.6°C 81% 2.3 mph S3.7 kmh S 4.6 mph7.4 kmh 29.84 in1010.5 mb - 0.00 in0.0 mm 0.00 in0.0 mm
08:30 AM 23.6°F-4.7°C 18.6°F-7.4°C 81% Calm Calm -- 29.84 in1010.5 mb - 0.00 in0.0 mm 0.00 in0.0 mm
08:40 AM 23.7°F-4.6°C 18.4°F-7.6°C 80% 2.3 mph SSW3.7 kmh SSW 3.5 mph5.6 kmh 29.84 in1010.5 mb - 0.00 in0.0 mm 0.00 in0.0 mm
08:50 AM 23.7°F-4.6°C 18.5°F-7.5°C 80% Calm Calm -- 29.84 in1010.5 mb - 0.00 in0.0 mm 0.00 in0.0 mm
09:00 AM 23.6°F-4.7°C 18.3°F-7.6°C 80% Calm Calm -- 29.84 in1010.5 mb - 0.00 in0.0 mm 0.00 in0.0 mm
09:10 AM 23.5°F-4.7°C 18.2°F-7.7°C 80% Calm Calm -- 29.84 in1010.5 mb - 0.00 in0.0 mm 0.00 in0.0 mm
09:20 AM 23.7°F-4.6°C 18.4°F-7.6°C 80% Calm Calm 3.5 mph5.6 kmh 29.83 in1010.2 mb - 0.00 in0.0 mm 0.00 in0.0 mm
09:30 AM 24.0°F-4.4°C 18.7°F-7.4°C 80% Calm Calm -- 29.83 in1010.2 mb - 0.00 in0.0 mm 0.00 in0.0 mm
09:40 AM 24.3°F-4.3°C 19.0°F-7.2°C 80% Calm Calm -- 29.83 in1010.2 mb - 0.00 in0.0 mm 0.00 in0.0 mm
09:50 AM 24.5°F-4.2°C 19.0°F-7.2°C 79% Calm Calm -- 29.83 in1010.2 mb - 0.00 in0.0 mm 0.00 in0.0 mm
10:00 AM 25.1°F-3.8°C 19.5°F-6.9°C 79% Calm Calm -- 29.83 in1010.2 mb - 0.00 in0.0 mm 0.00 in0.0 mm
10:10 AM 25.8°F-3.4°C 19.9°F-6.7°C 78% 1.2 mph S1.9 kmh S 2.3 mph3.7 kmh 29.84 in1010.5 mb - 0.00 in0.0 mm 0.00 in0.0 mm
10:20 AM 26.5°F-3.1°C 20.2°F-6.6°C 77% Calm Calm -- 29.83 in1010.2 mb - 0.00 in0.0 mm 0.00 in0.0 mm
10:30 AM 27.1°F-2.7°C 20.6°F-6.3°C 76% 2.3 mph S3.7 kmh S 5.8 mph9.3 kmh 29.84 in1010.5 mb - 0.00 in0.0 mm 0.00 in0.0 mm
10:40 AM 27.7°F-2.4°C 20.5°F-6.4°C 74% 1.2 mph S1.9 kmh S -- 29.83 in1010.2 mb - 0.00 in0.0 mm 0.00 in0.0 mm
10:50 AM 28.2°F-2.1°C 21.0°F-6.1°C 74% Calm Calm -- 29.83 in1010.2 mb - 0.00 in0.0 mm 0.00 in0.0 mm
11:00 AM 28.7°F-1.8°C 21.2°F-6.0°C 73% Calm Calm -- 29.82 in1009.8 mb - 0.00 in0.0 mm 0.00 in0.0 mm
11:10 AM 29.4°F-1.4°C 21.5°F-5.8°C 72% 2.3 mph S3.7 kmh S 3.5 mph5.6 kmh 29.82 in1009.8 mb - 0.00 in0.0 mm 0.00 in0.0 mm
11:20 AM 29.8°F-1.2°C 21.5°F-5.8°C 71% 3.5 mph S5.6 kmh S 4.6 mph7.4 kmh 29.82 in1009.8 mb - 0.00 in0.0 mm 0.00 in0.0 mm
11:30 AM 30.1°F-1.1°C 21.8°F-5.7°C 71% 3.5 mph SSW5.6 kmh SSW 4.6 mph7.4 kmh 29.81 in1009.5 mb - 0.00 in0.0 mm 0.00 in0.0 mm
11:40 AM 30.6°F-0.8°C 22.3°F-5.4°C 71% Calm Calm -- 29.81 in1009.5 mb - 0.00 in0.0 mm 0.00 in0.0 mm
11:50 AM 31.3°F-0.4°C 22.6°F-5.2°C 70% Calm Calm -- 29.81 in1009.5 mb - 0.00 in0.0 mm 0.00 in0.0 mm
12:00 PM 31.9°F-0.1°C 22.9°F-5.1°C 69% 3.5 mph S5.6 kmh S 5.8 mph9.3 kmh 29.80 in1009.1 mb - 0.00 in0.0 mm 0.00 in0.0 mm
12:10 PM 32.3°F0.2°C 22.9°F-5.1°C 68% Calm Calm -- 29.79 in1008.8 mb - 0.00 in0.0 mm 0.00 in0.0 mm
12:20 PM 32.6°F0.3°C 23.2°F-4.9°C 68% Calm Calm -- 29.79 in1008.8 mb - 0.00 in0.0 mm 0.00 in0.0 mm
12:30 PM 32.8°F0.4°C 23.4°F-4.8°C 68% 3.5 mph S5.6 kmh S 5.8 mph9.3 kmh 29.79 in1008.8 mb - 0.00 in0.0 mm 0.00 in0.0 mm
12:40 PM 32.8°F0.4°C 23.4°F-4.8°C 68% Calm Calm -- 29.78 in1008.5 mb - 0.00 in0.0 mm 0.00 in0.0 mm
12:50 PM 33.0°F0.6°C 23.6°F-4.7°C 68% 1.2 mph S1.9 kmh S 4.6 mph7.4 kmh 29.77 in1008.1 mb - 0.00 in0.0 mm 0.00 in0.0 mm
01:00 PM 33.5°F0.8°C 24.0°F-4.4°C 68% Calm Calm -- 29.77 in1008.1 mb - 0.00 in0.0 mm 0.00 in0.0 mm
01:10 PM 33.7°F0.9°C 23.9°F-4.5°C 67% 1.2 mph S1.9 kmh S -- 29.76 in1007.8 mb - 0.00 in0.0 mm 0.00 in0.0 mm
01:20 PM 33.6°F0.9°C 24.2°F-4.3°C 68% 4.6 mph SSW7.4 kmh SSW 6.9 mph11.1 kmh 29.75 in1007.5 mb - 0.00 in0.0 mm 0.00 in0.0 mm
01:30 PM 33.8°F1.0°C 24.4°F-4.2°C 68% Calm Calm 1.2 mph1.9 kmh 29.75 in1007.5 mb - 0.00 in0.0 mm 0.00 in0.0 mm
01:40 PM 34.3°F1.3°C 24.8°F-4.0°C 68% Calm Calm -- 29.75 in1007.5 mb - 0.00 in0.0 mm 0.00 in0.0 mm
01:50 PM 34.9°F1.6°C 25.1°F-3.8°C 67% Calm Calm -- 29.76 in1007.8 mb - 0.00 in0.0 mm 0.00 in0.0 mm
02:00 PM 36.1°F2.3°C 25.5°F-3.6°C 65% Calm Calm -- 29.75 in1007.5 mb - 0.00 in0.0 mm 0.00 in0.0 mm
02:10 PM 36.6°F2.6°C 25.6°F-3.6°C 64% Calm Calm -- 29.74 in1007.1 mb - 0.01 in0.3 mm 0.01 in0.3 mm
02:20 PM 36.5°F2.5°C 25.8°F-3.4°C 65% Calm Calm 3.5 mph5.6 kmh 29.74 in1007.1 mb - 0.00 in0.0 mm 0.01 in0.3 mm
02:30 PM 36.7°F2.6°C 25.6°F-3.6°C 64% 4.6 mph S7.4 kmh S 5.8 mph9.3 kmh 29.73 in1006.8 mb - 0.00 in0.0 mm 0.01 in0.3 mm
02:40 PM 37.3°F2.9°C 26.2°F-3.2°C 64% 1.2 mph SW1.9 kmh SW 4.6 mph7.4 kmh 29.73 in1006.8 mb - 0.00 in0.0 mm 0.01 in0.3 mm
02:50 PM 37.5°F3.1°C 26.0°F-3.3°C 63% Calm Calm -- 29.72 in1006.4 mb - 0.00 in0.0 mm 0.01 in0.3 mm
03:00 PM 37.7°F3.2°C 26.3°F-3.2°C 63% 1.2 mph SW1.9 kmh SW -- 29.73 in1006.8 mb - 0.00 in0.0 mm 0.01 in0.3 mm
03:10 PM 37.8°F3.2°C 26.3°F-3.2°C 63% 2.3 mph SW3.7 kmh SW 5.8 mph9.3 kmh 29.73 in1006.8 mb - 0.00 in0.0 mm 0.01 in0.3 mm
03:20 PM 37.8°F3.2°C 26.3°F-3.2°C 63% 2.3 mph SW3.7 kmh SW 9.2 mph14.8 kmh 29.74 in1007.1 mb - 0.00 in0.0 mm 0.01 in0.3 mm
03:30 PM 38.0°F3.3°C 26.5°F-3.1°C 63% Calm Calm 6.9 mph11.1 kmh 29.74 in1007.1 mb - 0.00 in0.0 mm 0.01 in0.3 mm
03:40 PM 37.8°F3.2°C 26.3°F-3.2°C 63% 1.2 mph SW1.9 kmh SW 3.5 mph5.6 kmh 29.74 in1007.1 mb - 0.00 in0.0 mm 0.01 in0.3 mm
03:50 PM 38.0°F3.3°C 26.5°F-3.1°C 63% Calm Calm -- 29.74 in1007.1 mb - 0.00 in0.0 mm 0.01 in0.3 mm
04:00 PM 38.0°F3.3°C 26.9°F-2.8°C 64% 1.2 mph WSW1.9 kmh WSW 5.8 mph9.3 kmh 29.73 in1006.8 mb - 0.01 in0.3 mm 0.02 in0.5 mm
04:10 PM 38.2°F3.4°C 26.7°F-2.9°C 63% 2.3 mph SW3.7 kmh SW 5.8 mph9.3 kmh 29.73 in1006.8 mb - 0.00 in0.0 mm 0.02 in0.5 mm
04:20 PM 38.4°F3.6°C 27.3°F-2.6°C 64% 1.2 mph WSW1.9 kmh WSW 3.5 mph5.6 kmh 29.73 in1006.8 mb - 0.01 in0.3 mm 0.03 in0.8 mm
04:30 PM 38.2°F3.4°C 27.1°F-2.7°C 64% 1.2 mph SW1.9 kmh SW 6.9 mph11.1 kmh 29.73 in1006.8 mb - 0.01 in0.3 mm 0.04 in1.0 mm
04:40 PM 38.1°F3.4°C 27.4°F-2.6°C 65% 1.2 mph SW1.9 kmh SW 3.5 mph5.6 kmh 29.73 in1006.8 mb - 0.00 in0.0 mm 0.04 in1.0 mm
04:50 PM 38.1°F3.4°C 27.4°F-2.6°C 65% Calm Calm -- 29.72 in1006.4 mb - 0.01 in0.3 mm 0.05 in1.3 mm
05:00 PM 38.1°F3.4°C 27.4°F-2.6°C 65% 2.3 mph WSW3.7 kmh WSW 3.5 mph5.6 kmh 29.72 in1006.4 mb - 0.00 in0.0 mm 0.05 in1.3 mm
05:10 PM 37.8°F3.2°C 27.5°F-2.5°C 66% Calm Calm -- 29.72 in1006.4 mb - 0.01 in0.3 mm 0.06 in1.5 mm
05:20 PM 37.3°F2.9°C 27.4°F-2.6°C 67% Calm Calm -- 29.72 in1006.4 mb - 0.00 in0.0 mm 0.06 in1.5 mm
05:30 PM 37.0°F2.8°C 27.4°F-2.6°C 68% Calm Calm -- 29.73 in1006.8 mb - 0.01 in0.3 mm 0.07 in1.8 mm
05:40 PM 36.7°F2.6°C 27.5°F-2.5°C 69% Calm Calm -- 29.73 in1006.8 mb - 0.00 in0.0 mm 0.07 in1.8 mm
05:50 PM 36.3°F2.4°C 27.5°F-2.5°C 70% Calm Calm -- 29.72 in1006.4 mb - 0.01 in0.3 mm 0.08 in2.0 mm
06:00 PM 36.1°F2.3°C 27.3°F-2.6°C 70% 1.2 mph SW1.9 kmh SW 3.5 mph5.6 kmh 29.72 in1006.4 mb - 0.01 in0.3 mm 0.09 in2.3 mm
06:10 PM 36.1°F2.3°C 27.6°F-2.4°C 71% 2.3 mph SW3.7 kmh SW 3.5 mph5.6 kmh 29.73 in1006.8 mb - 0.00 in0.0 mm 0.09 in2.3 mm
06:20 PM 36.0°F2.2°C 27.5°F-2.5°C 71% Calm Calm -- 29.73 in1006.8 mb - 0.00 in0.0 mm 0.09 in2.3 mm
06:30 PM 36.0°F2.2°C 27.5°F-2.5°C 71% Calm Calm 2.3 mph3.7 kmh 29.72 in1006.4 mb - 0.01 in0.3 mm 0.10 in2.5 mm
06:40 PM 35.9°F2.2°C 27.7°F-2.4°C 72% Calm Calm 8.1 mph13.0 kmh 29.72 in1006.4 mb - 0.00 in0.0 mm 0.10 in2.5 mm
06:50 PM 35.7°F2.1°C 27.6°F-2.4°C 72% Calm Calm -- 29.72 in1006.4 mb - 0.00 in0.0 mm 0.10 in2.5 mm
07:00 PM 35.7°F2.1°C 27.6°F-2.4°C 72% Calm Calm -- 29.72 in1006.4 mb - 0.00 in0.0 mm 0.10 in2.5 mm
07:10 PM 35.7°F2.1°C 27.6°F-2.4°C 72% 1.2 mph SW1.9 kmh SW -- 29.73 in1006.8 mb - 0.01 in0.3 mm 0.11 in2.8 mm
07:20 PM 35.6°F2.0°C 27.8°F-2.3°C 73% Calm Calm 3.5 mph5.6 kmh 29.73 in1006.8 mb - 0.00 in0.0 mm 0.11 in2.8 mm
07:30 PM 35.6°F2.0°C 27.8°F-2.3°C 73% 2.3 mph SW3.7 kmh SW 3.5 mph5.6 kmh 29.73 in1006.8 mb - 0.00 in0.0 mm 0.11 in2.8 mm
07:40 PM 35.4°F1.9°C 27.6°F-2.4°C 73% 1.2 mph SW1.9 kmh SW 3.5 mph5.6 kmh 29.74 in1007.1 mb - 0.00 in0.0 mm 0.11 in2.8 mm
07:50 PM 35.4°F1.9°C 27.6°F-2.4°C 73% 1.2 mph SW1.9 kmh SW 3.5 mph5.6 kmh 29.74 in1007.1 mb - 0.00 in0.0 mm 0.11 in2.8 mm
08:00 PM 35.3°F1.8°C 27.5°F-2.5°C 73% 1.2 mph SW1.9 kmh SW 3.5 mph5.6 kmh 29.74 in1007.1 mb - 0.00 in0.0 mm 0.11 in2.8 mm
08:10 PM 35.3°F1.8°C 27.5°F-2.5°C 73% 2.3 mph SW3.7 kmh SW 3.5 mph5.6 kmh 29.74 in1007.1 mb - 0.00 in0.0 mm 0.11 in2.8 mm
08:20 PM 35.1°F1.7°C 27.6°F-2.4°C 74% Calm Calm -- 29.73 in1006.8 mb - 0.00 in0.0 mm 0.11 in2.8 mm
08:30 PM 34.6°F1.4°C 27.2°F-2.7°C 74% 1.2 mph SW1.9 kmh SW 3.5 mph5.6 kmh 29.74 in1007.1 mb - 0.00 in0.0 mm 0.11 in2.8 mm
08:40 PM 34.5°F1.4°C 27.4°F-2.6°C 75% Calm Calm -- 29.74 in1007.1 mb - 0.00 in0.0 mm 0.11 in2.8 mm
08:50 PM 34.3°F1.3°C 27.2°F-2.7°C 75% Calm Calm -- 29.74 in1007.1 mb - 0.00 in0.0 mm 0.11 in2.8 mm
09:00 PM 34.2°F1.2°C 27.1°F-2.7°C 75% Calm Calm -- 29.74 in1007.1 mb - 0.00 in0.0 mm 0.11 in2.8 mm
09:10 PM 34.1°F1.2°C 27.3°F-2.6°C 76% 1.2 mph WSW1.9 kmh WSW 3.5 mph5.6 kmh 29.73 in1006.8 mb - 0.00 in0.0 mm 0.11 in2.8 mm
09:20 PM 34.1°F1.2°C 27.3°F-2.6°C 76% Calm Calm -- 29.74 in1007.1 mb - 0.00 in0.0 mm 0.11 in2.8 mm
09:30 PM 34.0°F1.1°C 27.2°F-2.7°C 76% Calm Calm -- 29.74 in1007.1 mb - 0.00 in0.0 mm 0.11 in2.8 mm
09:40 PM 33.9°F1.1°C 27.1°F-2.7°C 76% Calm Calm -- 29.75 in1007.5 mb - 0.00 in0.0 mm 0.11 in2.8 mm
09:50 PM 33.8°F1.0°C 27.1°F-2.7°C 76% Calm Calm -- 29.74 in1007.1 mb - 0.00 in0.0 mm 0.11 in2.8 mm
10:00 PM 33.8°F1.0°C 27.3°F-2.6°C 77% Calm Calm 4.6 mph7.4 kmh 29.74 in1007.1 mb - 0.00 in0.0 mm 0.11 in2.8 mm
10:10 PM 33.7°F0.9°C 27.3°F-2.6°C 77% 2.3 mph SW3.7 kmh SW 3.5 mph5.6 kmh 29.74 in1007.1 mb - 0.00 in0.0 mm 0.11 in2.8 mm
10:20 PM 33.7°F0.9°C 27.3°F-2.6°C 77% Calm Calm -- 29.73 in1006.8 mb - 0.00 in0.0 mm 0.11 in2.8 mm
10:30 PM 33.5°F0.8°C 27.1°F-2.7°C 77% Calm Calm -- 29.74 in1007.1 mb - 0.00 in0.0 mm 0.11 in2.8 mm
10:40 PM 33.4°F0.8°C 27.0°F-2.8°C 77% Calm Calm -- 29.75 in1007.5 mb - 0.00 in0.0 mm 0.11 in2.8 mm
10:50 PM 33.0°F0.6°C 26.6°F-3.0°C 77% Calm Calm -- 29.75 in1007.5 mb - 0.00 in0.0 mm 0.11 in2.8 mm
11:00 PM 32.6°F0.3°C 26.5°F-3.1°C 78% Calm Calm -- 29.75 in1007.5 mb - 0.00 in0.0 mm 0.11 in2.8 mm
11:10 PM 32.4°F0.2°C 26.6°F-3.0°C 79% Calm Calm -- 29.74 in1007.1 mb - 0.00 in0.0 mm 0.11 in2.8 mm
11:20 PM 32.5°F0.3°C 26.7°F-2.9°C 79% 2.3 mph SW3.7 kmh SW 3.5 mph5.6 kmh 29.74 in1007.1 mb - 0.00 in0.0 mm 0.11 in2.8 mm
11:30 PM 32.7°F0.4°C 26.6°F-3.0°C 78% Calm Calm 3.5 mph5.6 kmh 29.74 in1007.1 mb - 0.00 in0.0 mm 0.11 in2.8 mm
11:40 PM 32.6°F0.3°C 26.5°F-3.1°C 78% 2.3 mph SW3.7 kmh SW 4.6 mph7.4 kmh 29.73 in1006.8 mb - 0.00 in0.0 mm 0.11 in2.8 mm
11:50 PM 32.6°F0.3°C 26.5°F-3.1°C 78% Calm Calm -- 29.73 in1006.8 mb - 0.00 in0.0 mm 0.11 in2.8 mm